createdAt,value
2022-11-21T00:01:49.974Z,18.02
2022-11-21T00:04:55.348Z,15.10
2022-11-21T00:08:01.375Z,16.05
2022-11-21T00:11:06.961Z,18.05
2022-11-21T00:14:13.199Z,14.70
2022-11-21T00:17:19.404Z,15.10
2022-11-21T00:20:25.947Z,17.20
2022-11-21T00:23:33.737Z,14.50
2022-11-21T00:26:39.391Z,15.48
2022-11-21T00:29:45.762Z,15.80
2022-11-21T00:32:50.725Z,17.98
2022-11-21T00:35:56.470Z,18.37
2022-11-21T00:39:02.028Z,18.27
2022-11-21T00:42:07.573Z,16.32
2022-11-21T00:45:13.779Z,16.87
2022-11-21T00:48:18.743Z,16.27
2022-11-21T00:51:25.073Z,16.40
2022-11-21T00:54:30.418Z,16.48
2022-11-21T00:57:36.454Z,16.77
2022-11-21T01:00:42.509Z,17.05
2022-11-21T01:03:49.446Z,14.40
2022-11-21T01:06:56.206Z,15.43
2022-11-21T01:10:02.401Z,15.35
2022-11-21T01:13:08.560Z,14.95
2022-11-21T01:16:27.322Z,14.73
2022-11-21T01:19:32.867Z,15.83
2022-11-21T01:22:38.747Z,15.25
2022-11-21T01:25:44.627Z,13.88
2022-11-21T01:28:50.775Z,14.68
2022-11-21T01:31:57.393Z,14.70
2022-11-21T01:35:02.595Z,15.45
2022-11-21T01:38:08.466Z,13.83
2022-11-21T01:41:15.017Z,15.38
2022-11-21T01:44:35.540Z,17.80
2022-11-21T01:47:29.319Z,15.50
2022-11-21T01:50:35.743Z,17.37
2022-11-21T01:53:41.584Z,13.95
2022-11-21T01:56:54.535Z,14.43
2022-11-21T02:00:16.330Z,14.53
2022-11-21T02:03:26.644Z,15.58
2022-11-21T02:06:33.486Z,15.28
2022-11-21T02:09:39.807Z,14.58
2022-11-21T02:13:05.110Z,14.85
2022-11-21T02:16:11.154Z,16.75
2022-11-21T02:19:17.397Z,16.70
2022-11-21T02:22:28.687Z,17.70
2022-11-21T02:25:44.144Z,16.37
2022-11-21T02:28:50.203Z,16.30
2022-11-21T02:31:55.571Z,15.70
2022-11-21T02:35:02.711Z,16.02
2022-11-21T02:38:20.219Z,16.30
2022-11-21T02:41:36.820Z,16.85
2022-11-21T02:44:49.832Z,18.10
2022-11-21T02:48:03.456Z,15.15
2022-11-21T02:51:05.625Z,16.35
2022-11-21T02:54:05.088Z,15.40
2022-11-21T02:56:51.488Z,16.23
2022-11-21T02:59:44.722Z,15.03
2022-11-21T03:02:31.382Z,14.65
2022-11-21T03:05:26.556Z,13.58
2022-11-21T03:08:19.232Z,15.68
2022-11-21T03:11:17.896Z,16.00
2022-11-21T03:14:24.458Z,14.33
2022-11-21T03:17:30.603Z,16.67
2022-11-21T03:20:35.983Z,17.02
2022-11-21T03:23:42.153Z,17.12
2022-11-21T03:26:47.759Z,15.23
2022-11-21T03:29:53.890Z,16.60
2022-11-21T03:33:00.221Z,17.37
2022-11-21T03:36:06.379Z,16.20
2022-11-21T03:39:11.743Z,16.00
2022-11-21T03:42:11.947Z,16.07
2022-11-21T03:48:24.234Z,17.20
2022-11-21T03:51:29.959Z,17.30
2022-11-21T03:54:35.662Z,17.07
2022-11-21T03:57:42.154Z,15.43
2022-11-21T04:00:48.750Z,17.05
2022-11-21T04:03:56.416Z,15.20
2022-11-21T04:07:04.004Z,13.95
2022-11-21T04:10:09.657Z,15.18
2022-11-21T04:13:16.830Z,14.93
2022-11-21T04:16:22.349Z,15.45
2022-11-21T04:19:28.563Z,16.62
2022-11-21T04:22:35.657Z,16.75
2022-11-21T04:25:34.953Z,17.55
2022-11-21T04:28:40.067Z,15.75
2022-11-21T04:31:46.903Z,15.32
2022-11-21T04:34:54.400Z,16.12
2022-11-21T04:37:55.108Z,16.85
2022-11-21T04:40:41.091Z,18.17
2022-11-21T04:43:40.701Z,20.05
2022-11-21T04:46:46.550Z,21.70
2022-11-21T04:49:52.272Z,21.93
2022-11-21T04:53:01.690Z,22.30
2022-11-21T04:56:08.157Z,22.80
2022-11-21T04:59:13.584Z,21.37
2022-11-21T05:02:13.019Z,21.68
2022-11-21T05:04:58.771Z,11.50
2022-11-21T05:07:51.862Z,7.90
2022-11-21T05:10:39.538Z,8.63
2022-11-21T05:13:32.885Z,8.23
2022-11-21T05:16:32.332Z,6.95
2022-11-21T05:19:37.935Z,6.47
2022-11-21T05:22:44.977Z,6.55
2022-11-21T05:25:50.659Z,6.25
2022-11-21T05:28:55.682Z,6.08
2022-11-21T05:32:02.243Z,5.97
2022-11-21T05:35:08.629Z,6.17
2022-11-21T05:38:13.884Z,5.50
2022-11-21T05:41:19.820Z,5.70
2022-11-21T05:44:25.597Z,6.20
2022-11-21T05:47:31.814Z,5.62
2022-11-21T05:50:37.616Z,6.10
2022-11-21T05:53:44.240Z,6.70
2022-11-21T05:56:49.602Z,6.90
2022-11-21T05:59:54.698Z,6.50
2022-11-21T06:03:20.937Z,6.55
2022-11-21T06:06:30.129Z,7.42
2022-11-21T06:09:36.820Z,9.20
2022-11-21T06:12:42.575Z,8.23
2022-11-21T06:15:47.881Z,7.65
2022-11-21T06:18:58.547Z,12.65
2022-11-21T06:22:04.412Z,10.18
2022-11-21T06:25:13.007Z,8.38
2022-11-21T06:28:18.745Z,7.92
2022-11-21T06:31:30.741Z,7.33
2022-11-21T06:34:35.983Z,7.12
2022-11-21T06:37:41.019Z,9.65
2022-11-21T06:40:46.178Z,8.18
2022-11-21T06:43:51.480Z,7.85
2022-11-21T06:46:57.405Z,16.05
2022-11-21T06:50:03.416Z,13.43
2022-11-21T06:53:10.794Z,9.15
2022-11-21T06:56:17.281Z,8.43
2022-11-21T06:59:22.267Z,8.25
2022-11-21T07:02:28.690Z,8.78
2022-11-21T07:05:33.601Z,9.58
2022-11-21T07:08:40.632Z,9.40
2022-11-21T07:11:46.452Z,9.75
2022-11-21T07:14:55.138Z,10.58
2022-11-21T07:31:47.753Z,12.30
2022-11-21T07:34:53.479Z,12.68
2022-11-21T07:38:00.293Z,15.18
2022-11-21T07:41:06.409Z,15.90
2022-11-21T07:44:11.880Z,18.30
2022-11-21T07:47:18.061Z,16.75
2022-11-21T07:50:24.771Z,17.73
2022-11-21T07:53:31.549Z,17.25
2022-11-21T07:56:36.670Z,20.52
2022-11-21T07:59:42.904Z,19.77
2022-11-21T08:02:48.327Z,19.62
2022-11-21T08:05:54.991Z,19.60
2022-11-21T08:08:55.534Z,22.20
2022-11-21T08:12:01.248Z,23.35
2022-11-21T08:15:06.777Z,21.68
2022-11-21T08:18:12.317Z,20.43
2022-11-21T08:21:20.321Z,20.75
2022-11-21T08:24:26.051Z,20.92
2022-11-21T08:27:31.120Z,22.90
2022-11-21T08:30:36.613Z,23.15
2022-11-21T08:33:41.819Z,22.52
2022-11-21T08:36:47.206Z,21.60
2022-11-21T08:39:52.799Z,23.07
2022-11-21T08:42:58.405Z,23.27
2022-11-21T08:46:03.277Z,23.90
2022-11-21T08:49:09.799Z,22.42
2022-11-21T08:52:15.130Z,21.42
2022-11-21T08:55:23.692Z,22.13
2022-11-21T08:58:28.576Z,23.62
2022-11-21T09:01:34.474Z,21.57
2022-11-21T09:04:40.184Z,24.63
2022-11-21T09:07:47.716Z,22.67
2022-11-21T09:10:53.683Z,24.80
2022-11-21T09:14:17.554Z,24.43
2022-11-21T09:17:44.890Z,24.35
2022-11-21T09:20:56.224Z,23.55
2022-11-21T09:24:01.070Z,23.87
2022-11-21T09:27:07.383Z,23.85
2022-11-21T09:30:13.926Z,23.10
2022-11-21T09:33:23.256Z,20.52
2022-11-21T09:36:29.185Z,21.85
2022-11-21T09:39:35.457Z,21.00
2022-11-21T09:42:54.972Z,18.20
2022-11-21T09:46:02.556Z,19.75
2022-11-21T09:49:15.912Z,19.57
2022-11-21T09:52:23.667Z,19.27
2022-11-21T09:55:54.034Z,19.67
2022-11-21T09:59:15.423Z,19.50
2022-11-21T13:26:48.960Z,46.23
2022-11-21T13:29:54.782Z,44.30
2022-11-21T13:33:06.219Z,51.70
2022-11-21T13:36:11.847Z,46.18
2022-11-21T13:39:22.353Z,43.85
2022-11-21T13:42:58.364Z,41.05
2022-11-21T13:46:06.852Z,34.67
2022-11-21T13:49:19.573Z,26.97
2022-11-21T13:52:38.782Z,20.62
2022-11-21T13:56:06.192Z,18.20
2022-11-21T13:59:52.382Z,15.65
2022-11-21T14:03:30.137Z,15.20
2022-11-21T14:06:53.338Z,15.13
2022-11-21T14:10:03.429Z,15.05
2022-11-21T14:13:08.736Z,14.23
2022-11-21T14:16:40.237Z,14.13
2022-11-21T14:19:46.057Z,15.30
2022-11-21T14:23:15.754Z,17.57
2022-11-21T14:26:28.498Z,18.02
2022-11-21T14:29:43.352Z,17.05
2022-11-21T14:32:53.910Z,15.75
2022-11-21T14:35:55.253Z,14.87
2022-11-21T14:39:35.821Z,16.37
2022-11-21T14:42:22.364Z,17.83
2022-11-21T14:45:33.823Z,18.80
2022-11-21T14:48:47.147Z,17.80
2022-11-21T14:51:52.925Z,18.75
2022-11-21T14:55:29.294Z,16.85
2022-11-21T14:58:17.339Z,15.13
2022-11-21T15:01:34.433Z,15.40
2022-11-21T15:04:49.473Z,19.52
2022-11-21T15:08:17.164Z,15.45
2022-11-21T15:11:05.814Z,15.80
2022-11-21T15:14:16.766Z,14.83
2022-11-21T15:17:28.018Z,15.55
2022-11-21T15:20:34.852Z,12.65
2022-11-21T15:23:51.714Z,13.85
2022-11-21T15:26:58.315Z,15.00
2022-11-21T15:30:28.365Z,13.88
2022-11-21T15:33:34.351Z,11.88
2022-11-21T15:36:40.165Z,13.50
2022-11-21T15:39:46.504Z,12.70
2022-11-21T15:42:51.375Z,13.83
2022-11-21T15:45:57.072Z,11.50
2022-11-21T15:52:15.226Z,13.53
2022-11-21T15:55:25.420Z,10.82
2022-11-21T15:57:13.948Z,12.18
2022-11-21T15:58:33.161Z,11.35
2022-11-21T16:01:41.779Z,11.88
2022-11-21T16:04:47.327Z,12.80
2022-11-21T16:07:54.188Z,11.63
2022-11-21T16:11:00.468Z,11.85
2022-11-21T16:14:10.683Z,11.50
2022-11-21T16:17:16.314Z,11.53
2022-11-21T16:20:23.266Z,11.75
2022-11-21T16:23:29.524Z,11.35
2022-11-21T16:26:37.993Z,13.22
2022-11-21T16:29:43.244Z,12.13
2022-11-21T16:32:49.148Z,10.63
2022-11-21T16:35:55.593Z,9.93
2022-11-21T16:39:06.865Z,10.03
2022-11-21T16:42:07.662Z,8.70
2022-11-21T16:45:12.868Z,9.48
2022-11-21T16:48:19.008Z,8.45
2022-11-21T16:51:35.072Z,9.23
2022-11-21T16:54:40.362Z,9.40
2022-11-21T16:57:49.538Z,9.03
2022-11-21T17:00:55.321Z,8.38
2022-11-21T17:04:01.453Z,8.53
2022-11-21T17:07:06.369Z,10.15
2022-11-21T17:10:12.290Z,8.15
2022-11-21T17:13:17.411Z,8.88
2022-11-21T17:16:22.853Z,9.63
2022-11-21T17:19:29.928Z,7.70
2022-11-21T17:22:35.242Z,7.90
2022-11-21T17:25:40.505Z,7.08
2022-11-21T17:28:46.338Z,7.90
2022-11-21T17:31:52.909Z,7.65
2022-11-21T17:34:58.853Z,7.25
2022-11-21T17:38:04.687Z,7.28
2022-11-21T17:41:20.751Z,6.60
2022-11-21T17:44:29.341Z,6.47
2022-11-21T17:47:35.798Z,6.72
2022-11-21T17:50:40.613Z,7.67
2022-11-21T17:53:50.561Z,7.92
2022-11-21T17:56:57.139Z,8.25
2022-11-21T18:00:03.383Z,7.28
2022-11-21T18:03:10.673Z,6.72
2022-11-21T18:06:23.451Z,7.37
2022-11-21T18:09:29.429Z,7.22
2022-11-21T18:12:34.764Z,7.22
2022-11-21T18:15:40.399Z,7.33
2022-11-21T18:18:46.532Z,7.37
2022-11-21T18:21:52.588Z,9.38
2022-11-21T18:24:57.706Z,8.95
2022-11-21T18:28:03.257Z,10.78
2022-11-21T18:31:07.845Z,8.60
2022-11-21T18:34:15.100Z,7.85
2022-11-21T18:37:20.116Z,7.15
2022-11-21T18:40:27.701Z,7.80
2022-11-21T18:43:32.651Z,7.75
2022-11-21T18:46:37.743Z,7.33
2022-11-21T18:49:42.879Z,6.97
2022-11-21T18:52:48.392Z,7.37
2022-11-21T18:55:54.803Z,7.00
2022-11-21T18:59:00.379Z,7.17
2022-11-21T19:02:05.648Z,8.03
2022-11-21T19:05:13.960Z,8.68
2022-11-21T19:08:18.532Z,9.48
2022-11-21T19:11:26.598Z,8.38
2022-11-21T19:14:31.870Z,8.03
2022-11-21T19:17:36.515Z,7.10
2022-11-21T22:23:56.410Z,6.08
2022-11-21T22:27:37.659Z,5.85
2022-11-21T22:30:55.782Z,6.58
2022-11-21T22:38:17.493Z,6.92
2022-11-21T22:41:59.680Z,6.12
2022-11-21T22:45:37.203Z,6.95
2022-11-21T22:49:00.912Z,7.17
2022-11-21T22:52:05.867Z,8.33
2022-11-21T22:55:11.161Z,6.50
2022-11-21T22:58:16.058Z,6.42
2022-11-21T23:01:27.161Z,7.40
2022-11-21T23:04:33.365Z,7.67
2022-11-21T23:07:39.292Z,5.53
2022-11-21T23:10:44.368Z,5.80
2022-11-21T23:13:49.822Z,6.55
2022-11-21T23:16:55.270Z,6.53
2022-11-21T23:20:00.832Z,7.37
2022-11-21T23:23:06.244Z,7.15
2022-11-21T23:26:11.537Z,7.37
2022-11-21T23:29:17.226Z,7.28
2022-11-21T23:32:22.152Z,7.45
2022-11-21T23:35:27.423Z,8.03
2022-11-21T23:38:32.874Z,7.40
2022-11-21T23:41:38.409Z,6.92
2022-11-21T23:44:44.617Z,6.50
2022-11-21T23:47:50.842Z,7.55
2022-11-21T23:50:59.248Z,6.55
2022-11-21T23:54:04.484Z,7.37
2022-11-21T23:57:09.920Z,6.75
